createdAt,value
2018-05-29T00:01:26.326Z,96376.90
2018-05-29T00:03:56.762Z,96378.75
2018-05-29T00:06:27.596Z,96375.38
2018-05-29T00:20:16.174Z,96358.34
2018-05-29T00:22:46.595Z,96360.08
2018-05-29T00:25:16.690Z,96366.34
2018-05-29T00:27:47.534Z,96357.11
2018-05-29T00:30:17.655Z,96355.38
2018-05-29T00:32:48.271Z,96362.45
2018-05-29T00:35:19.143Z,96362.04
2018-05-29T00:37:49.542Z,96356.81
2018-05-29T00:40:20.398Z,96363.48
2018-05-29T00:42:50.815Z,96362.55
2018-05-29T00:45:21.671Z,96361.73
2018-05-29T00:47:51.770Z,96361.73
2018-05-29T00:50:22.202Z,96357.33
2018-05-29T00:52:53.031Z,96360.00
2018-05-29T00:55:37.029Z,96357.33
2018-05-29T00:58:07.099Z,96356.11
2018-05-29T01:00:37.519Z,96356.19
2018-05-29T01:03:07.602Z,96362.03
2018-05-29T01:05:38.018Z,96358.84
2018-05-29T01:08:08.094Z,96362.95
2018-05-29T01:10:38.180Z,96365.22
2018-05-29T01:13:08.575Z,96371.88
2018-05-29T01:15:38.666Z,96373.84
2018-05-29T01:18:09.493Z,96380.09
2018-05-29T01:20:40.382Z,96380.50
2018-05-29T01:23:10.786Z,96377.84
2018-05-29T01:25:41.634Z,96377.94
2018-05-29T01:28:11.714Z,96388.61
2018-05-29T01:30:42.906Z,96386.45
2018-05-29T01:33:12.975Z,96384.61
2018-05-29T01:35:44.384Z,96381.31
2018-05-29T01:38:14.991Z,96379.57
2018-05-29T01:40:45.627Z,96378.64
2018-05-29T01:43:16.469Z,96372.61
2018-05-29T01:45:46.902Z,96377.02
2018-05-29T01:48:17.524Z,96381.53
2018-05-29T01:50:48.385Z,96377.02
2018-05-29T01:53:18.799Z,96380.20
2018-05-29T01:55:49.420Z,96378.05
2018-05-29T01:58:20.259Z,96378.97
2018-05-29T02:00:50.383Z,96385.23
2018-05-29T02:03:20.802Z,96384.78
2018-05-29T02:05:50.896Z,96381.30
2018-05-29T02:08:21.290Z,96381.82
2018-05-29T02:10:51.391Z,96379.38
2018-05-29T02:13:21.870Z,96377.52
2018-05-29T02:15:53.103Z,96379.38
2018-05-29T02:18:23.209Z,96376.70
2018-05-29T02:20:53.979Z,96370.45
2018-05-29T02:23:24.054Z,96366.56
2018-05-29T02:25:54.171Z,96364.81
2018-05-29T02:28:24.576Z,96366.16
2018-05-29T02:30:55.435Z,96367.16
2018-05-29T02:33:26.051Z,96374.74
2018-05-29T02:35:56.906Z,96378.33
2018-05-29T02:38:27.593Z,96375.66
2018-05-29T02:40:57.687Z,96388.17
2018-05-29T02:43:27.759Z,96392.28
2018-05-29T02:45:58.622Z,96392.28
2018-05-29T02:48:29.659Z,96394.02
2018-05-29T02:51:00.091Z,96393.50
2018-05-29T02:53:30.176Z,96403.35
2018-05-29T02:56:01.359Z,96407.76
2018-05-29T02:58:31.986Z,96409.20
2018-05-29T03:01:02.961Z,96413.61
2018-05-29T03:03:33.555Z,96417.71
2018-05-29T03:06:04.170Z,96417.61
2018-05-29T03:08:34.786Z,96419.97
2018-05-29T03:12:19.619Z,96429.41
2018-05-29T03:14:49.686Z,96430.22
2018-05-29T03:17:20.882Z,96437.70
2018-05-29T03:19:50.938Z,96433.41
2018-05-29T03:22:21.161Z,96432.07
2018-05-29T03:24:51.559Z,96432.55
2018-05-29T03:27:21.651Z,96427.15
2018-05-29T03:29:52.479Z,96426.73
2018-05-29T03:32:22.903Z,96424.15
2018-05-29T03:46:59.398Z,96426.41
2018-05-29T03:49:29.483Z,96421.48
2018-05-29T03:51:59.907Z,96413.48
2018-05-29T03:54:30.523Z,96414.00
2018-05-29T03:57:01.927Z,96409.82
2018-05-29T03:59:31.998Z,96404.16
2018-05-29T04:02:02.420Z,96405.91
2018-05-29T04:04:32.483Z,96401.91
2018-05-29T04:07:02.619Z,96404.08
2018-05-29T04:09:33.031Z,96403.16
2018-05-29T04:12:03.891Z,96403.56
2018-05-29T04:14:33.969Z,96411.97
2018-05-29T04:17:04.474Z,96410.23
2018-05-29T04:19:35.221Z,96402.53
2018-05-29T04:22:06.622Z,96405.20
2018-05-29T04:24:36.690Z,96409.09
2018-05-29T04:27:06.779Z,96409.09
2018-05-29T04:29:36.850Z,96420.68
2018-05-29T04:32:07.282Z,96418.94
2018-05-29T04:34:37.351Z,96424.56
2018-05-29T04:37:07.779Z,96424.98
2018-05-29T04:39:37.924Z,96424.98
2018-05-29T04:42:08.355Z,96427.64
2018-05-29T04:44:38.629Z,96430.31
2018-05-29T04:47:08.766Z,96427.75
2018-05-29T04:49:39.032Z,96425.09
2018-05-29T04:52:09.365Z,96416.27
2018-05-29T04:54:39.430Z,96417.39
2018-05-29T04:57:09.509Z,96424.28
2018-05-29T04:59:40.370Z,96420.17
2018-05-29T05:02:10.802Z,96415.66
2018-05-29T05:04:41.634Z,96412.88
2018-05-29T05:07:12.491Z,96414.33
2018-05-29T05:09:42.911Z,96419.15
2018-05-29T05:12:13.333Z,96427.86
2018-05-29T05:14:44.782Z,96427.78
2018-05-29T05:17:15.508Z,96432.49
2018-05-29T05:19:46.146Z,96429.20
2018-05-29T05:22:16.841Z,96434.02
2018-05-29T05:24:47.510Z,96439.16
2018-05-29T05:27:18.203Z,96442.64
2018-05-29T05:29:48.873Z,96438.34
2018-05-29T05:43:26.823Z,96447.77
2018-05-29T05:45:57.524Z,96448.08
2018-05-29T05:48:28.259Z,96449.11
2018-05-29T05:50:58.929Z,96451.77
2018-05-29T05:53:30.561Z,96444.59
2018-05-29T05:56:01.986Z,96448.08
2018-05-29T05:58:32.430Z,96447.45
2018-05-29T06:01:03.465Z,96448.27
2018-05-29T06:03:34.146Z,96450.02
2018-05-29T06:06:04.207Z,96453.50
2018-05-29T06:08:35.092Z,96459.16
2018-05-29T06:11:05.782Z,96456.50
2018-05-29T06:13:36.519Z,96456.39
2018-05-29T06:16:07.222Z,96450.84
2018-05-29T06:18:37.995Z,96458.25
2018-05-29T06:21:08.711Z,96452.91
2018-05-29T06:23:40.203Z,96455.47
2018-05-29T06:26:11.439Z,96454.44
2018-05-29T06:28:42.177Z,96452.70
2018-05-29T06:31:12.871Z,96452.48
2018-05-29T06:33:43.577Z,96452.30
2018-05-29T06:36:14.275Z,96450.75
2018-05-29T06:38:45.050Z,96451.98
2018-05-29T06:41:15.918Z,96448.09
2018-05-29T06:43:46.640Z,96454.03
2018-05-29T06:46:17.389Z,96459.17
2018-05-29T06:48:48.291Z,96455.37
2018-05-29T06:51:18.979Z,96465.85
2018-05-29T06:53:50.474Z,96457.74
2018-05-29T06:56:21.166Z,96460.19
2018-05-29T06:58:52.666Z,96451.16
2018-05-29T07:01:23.378Z,96455.59
2018-05-29T07:03:54.149Z,96453.12
2018-05-29T07:06:25.027Z,96444.20
2018-05-29T07:08:56.523Z,96446.45
2018-05-29T07:11:27.228Z,96443.78
2018-05-29T07:13:58.023Z,96447.68
2018-05-29T07:16:28.730Z,96439.57
2018-05-29T07:18:59.463Z,96441.72
2018-05-29T07:21:30.168Z,96445.16
2018-05-29T07:24:01.663Z,96448.34
2018-05-29T07:26:32.358Z,96442.90
2018-05-29T07:29:03.874Z,96448.13
2018-05-29T07:31:34.567Z,96440.53
2018-05-29T07:34:05.286Z,96439.02
2018-05-29T07:36:36.002Z,96440.75
2018-05-29T07:39:08.130Z,96442.91
2018-05-29T07:41:38.839Z,96447.10
2018-05-29T07:44:09.567Z,96435.80
2018-05-29T07:46:41.019Z,96436.24
2018-05-29T07:49:33.859Z,96435.61
2018-05-29T07:52:05.421Z,96430.47
2018-05-29T07:54:36.274Z,96432.55
2018-05-29T07:57:06.982Z,96437.15
2018-05-29T07:59:38.477Z,96436.63
2018-05-29T08:02:09.179Z,96444.63
2018-05-29T08:04:40.674Z,96443.30
2018-05-29T08:07:11.375Z,96448.63
2018-05-29T08:09:42.111Z,96450.48
2018-05-29T08:12:13.584Z,96453.78
2018-05-29T08:14:44.318Z,96462.48
2018-05-29T08:17:15.019Z,96463.00
2018-05-29T08:19:45.744Z,96462.70
2018-05-29T08:22:16.444Z,96466.48
2018-05-29T08:24:47.163Z,96459.92
2018-05-29T08:27:17.873Z,96456.25
2018-05-29T08:29:49.362Z,96457.25
2018-05-29T08:32:20.076Z,96453.88
2018-05-29T08:34:50.807Z,96448.95
2018-05-29T08:37:21.506Z,96446.28
2018-05-29T08:39:53.011Z,96446.69
2018-05-29T08:42:23.707Z,96450.48
2018-05-29T08:44:55.202Z,96443.52
2018-05-29T08:47:25.898Z,96441.47
2018-05-29T09:01:46.817Z,96451.70
2018-05-29T09:04:17.566Z,96455.71
2018-05-29T09:06:49.223Z,96459.61
2018-05-29T09:09:19.902Z,96461.45
2018-05-29T09:11:50.637Z,96456.53
2018-05-29T09:27:00.043Z,96459.70
2018-05-29T09:29:30.718Z,96460.75
2018-05-29T09:32:01.490Z,96458.79
2018-05-29T09:34:32.303Z,96463.83
2018-05-29T09:37:03.011Z,96458.69
2018-05-29T09:39:33.699Z,96463.62
2018-05-29T09:54:15.091Z,96450.69
2018-05-29T09:56:45.759Z,96452.03
2018-05-29T09:59:16.432Z,96447.70
2018-05-29T10:01:47.262Z,96446.03
2018-05-29T10:04:17.939Z,96447.26
2018-05-29T10:06:49.342Z,96443.59
2018-05-29T10:09:20.018Z,96443.25
2018-05-29T10:11:52.166Z,96442.14
2018-05-29T10:14:22.247Z,96442.33
2018-05-29T10:16:52.679Z,96436.58
2018-05-29T10:19:23.137Z,96436.17
2018-05-29T10:21:54.172Z,96440.06
2018-05-29T10:24:24.299Z,96438.50
2018-05-29T10:26:54.945Z,96439.66
2018-05-29T10:29:25.394Z,96438.91
2018-05-29T10:31:55.478Z,96435.95
2018-05-29T10:34:25.918Z,96435.02
2018-05-29T10:36:56.738Z,96431.12
2018-05-29T10:39:27.611Z,96437.09
2018-05-29T10:41:57.683Z,96440.69
2018-05-29T10:44:28.550Z,96441.62
2018-05-29T10:46:59.190Z,96444.48
2018-05-29T10:49:29.297Z,96444.81
2018-05-29T10:51:59.913Z,96440.06
2018-05-29T10:54:30.015Z,96444.70
2018-05-29T10:58:35.786Z,96441.92
2018-05-29T11:01:07.262Z,96443.55
2018-05-29T11:03:38.094Z,96438.12
2018-05-29T11:06:08.969Z,96443.77
2018-05-29T11:08:40.173Z,96440.06
2018-05-29T11:11:10.272Z,96438.84
2018-05-29T11:13:41.447Z,96441.81
2018-05-29T11:16:12.085Z,96450.34
2018-05-29T11:18:42.716Z,96446.96
2018-05-29T11:21:13.578Z,96453.00
2018-05-29T11:23:44.191Z,96440.47
2018-05-29T11:26:15.060Z,96442.73
2018-05-29T11:28:45.679Z,96441.10
2018-05-29T11:31:15.777Z,96438.95
2018-05-29T11:33:46.818Z,96443.14
2018-05-29T11:36:17.254Z,96442.73
2018-05-29T11:38:47.871Z,96438.53
2018-05-29T11:41:18.752Z,96432.16
2018-05-29T11:55:25.099Z,96441.99
2018-05-29T11:57:55.707Z,96433.38
2018-05-29T12:00:26.363Z,96431.94
2018-05-29T12:02:56.431Z,96432.23
2018-05-29T12:05:27.651Z,96439.84
2018-05-29T12:07:58.273Z,96433.27
2018-05-29T12:10:28.571Z,96434.72
2018-05-29T12:12:59.039Z,96431.31
2018-05-29T12:15:29.273Z,96424.04
2018-05-29T12:17:59.695Z,96426.61
2018-05-29T12:20:30.341Z,96422.93
2018-05-29T12:23:00.403Z,96424.67
2018-05-29T12:25:30.879Z,96417.78
2018-05-29T12:28:00.938Z,96421.30
2018-05-29T12:30:31.834Z,96429.20
2018-05-29T12:33:02.241Z,96434.54
2018-05-29T12:35:32.348Z,96425.42
2018-05-29T12:38:02.963Z,96417.52
2018-05-29T12:40:33.615Z,96423.45
2018-05-29T12:43:04.451Z,96420.59
2018-05-29T12:45:35.315Z,96426.34
2018-05-29T12:48:05.387Z,96427.90
2018-05-29T12:50:36.277Z,96422.34
2018-05-29T12:53:07.007Z,96430.05
2018-05-29T12:55:37.094Z,96438.76
2018-05-29T12:58:08.254Z,96448.73
2018-05-29T13:00:38.905Z,96454.58
2018-05-29T13:03:08.971Z,96453.66
2018-05-29T13:05:40.375Z,96462.70
2018-05-29T13:08:10.452Z,96461.96
2018-05-29T13:10:41.649Z,96460.22
2018-05-29T13:13:11.714Z,96450.58
2018-05-29T13:15:41.831Z,96450.47
2018-05-29T13:18:12.229Z,96449.55
2018-05-29T13:22:47.060Z,96442.27
2018-05-29T13:25:17.122Z,96443.39
2018-05-29T13:27:48.385Z,96439.80
2018-05-29T13:30:18.601Z,96434.27
2018-05-29T13:32:48.698Z,96440.64
2018-05-29T13:35:18.837Z,96448.42
2018-05-29T13:37:49.429Z,96454.39
2018-05-29T13:40:19.492Z,96462.09
2018-05-29T13:42:50.375Z,96478.20
2018-05-29T13:45:20.779Z,96480.25
2018-05-29T13:47:51.429Z,96476.46
2018-05-29T13:50:22.262Z,96467.61
2018-05-29T13:52:52.687Z,96454.38
2018-05-29T13:55:23.530Z,96436.84
2018-05-29T13:59:08.727Z,96420.54
2018-05-29T14:01:38.806Z,96414.88
2018-05-29T14:04:09.711Z,96417.13
2018-05-29T14:06:40.119Z,96403.80
2018-05-29T14:09:10.211Z,96407.09
2018-05-29T14:11:40.606Z,96407.72
2018-05-29T14:15:12.872Z,96408.23
2018-05-29T14:17:42.942Z,96410.16
2018-05-29T14:20:13.805Z,96419.61
2018-05-29T14:22:44.223Z,96428.53
2018-05-29T14:25:15.083Z,96427.72
2018-05-29T14:27:45.494Z,96425.16
2018-05-29T14:30:15.593Z,96422.57
2018-05-29T14:32:46.450Z,96415.49
2018-05-29T14:46:07.130Z,96381.81
2018-05-29T14:48:37.754Z,96374.74
2018-05-29T14:51:08.611Z,96368.59
2018-05-29T14:53:38.690Z,96367.66
2018-05-29T14:56:09.899Z,96374.74
2018-05-29T14:58:40.579Z,96383.16
2018-05-29T15:01:10.815Z,96388.48
2018-05-29T15:03:41.431Z,96392.48
2018-05-29T15:06:11.523Z,96397.71
2018-05-29T15:08:41.598Z,96405.30
2018-05-29T15:11:12.243Z,96408.38
2018-05-29T15:13:42.319Z,96408.82
2018-05-29T15:16:13.505Z,96403.05
2018-05-29T15:18:43.580Z,96403.41
2018-05-29T15:21:14.791Z,96393.66
2018-05-29T15:23:44.866Z,96387.81
2018-05-29T15:26:15.507Z,96380.22
2018-05-29T15:28:46.559Z,96370.77
2018-05-29T15:31:17.206Z,96376.11
2018-05-29T15:33:47.268Z,96366.66
2018-05-29T15:36:17.359Z,96366.66
2018-05-29T15:38:47.427Z,96368.73
2018-05-29T15:41:18.070Z,96362.06
2018-05-29T15:43:48.164Z,96355.40
2018-05-29T15:46:18.579Z,96342.87
2018-05-29T15:48:48.643Z,96338.47
2018-05-29T15:51:19.084Z,96343.39
2018-05-29T15:53:49.465Z,96352.22
2018-05-29T15:56:19.558Z,96358.47
2018-05-29T15:58:56.195Z,96351.80
2018-05-29T16:01:26.337Z,96341.13
2018-05-29T16:03:56.415Z,96348.21
2018-05-29T16:06:27.606Z,96347.17
2018-05-29T16:08:58.227Z,96350.14
2018-05-29T16:11:28.878Z,96362.55
2018-05-29T16:13:58.997Z,96362.03
2018-05-29T16:18:51.175Z,96352.81
2018-05-29T16:21:21.825Z,96357.44
2018-05-29T16:23:51.922Z,96360.63
2018-05-29T16:26:22.534Z,96365.73
2018-05-29T16:28:52.641Z,96361.52
2018-05-29T16:31:23.472Z,96365.52
2018-05-29T16:33:54.353Z,96361.73
2018-05-29T16:36:24.771Z,96360.08
2018-05-29T16:38:55.439Z,96357.33
2018-05-29T16:41:25.534Z,96351.88
2018-05-29T16:43:55.616Z,96350.03
2018-05-29T16:46:26.244Z,96339.25
2018-05-29T16:48:56.388Z,96343.66
2018-05-29T16:51:26.621Z,96343.66
2018-05-29T16:53:57.063Z,96334.32
2018-05-29T16:56:27.140Z,96329.69
2018-05-29T16:58:57.429Z,96331.54
2018-05-29T17:01:27.527Z,96331.95
2018-05-29T17:03:57.985Z,96329.39
2018-05-29T17:06:28.613Z,96332.47
2018-05-29T17:08:58.723Z,96336.06
2018-05-29T17:11:29.127Z,96335.95
2018-05-29T17:13:59.229Z,96346.22
2018-05-29T17:16:30.079Z,96345.51
2018-05-29T17:19:00.495Z,96345.92
2018-05-29T17:21:31.335Z,96345.10
2018-05-29T17:24:01.766Z,96352.29
2018-05-29T17:26:32.599Z,96350.14
2018-05-29T17:29:03.271Z,96354.95
2018-05-29T17:31:33.905Z,96351.06
2018-05-29T17:34:03.990Z,96356.81
2018-05-29T17:36:34.827Z,96361.92
2018-05-29T17:39:04.801Z,96363.78
2018-05-29T17:41:35.411Z,96365.22
2018-05-29T17:44:06.050Z,96368.30
2018-05-29T17:46:36.140Z,96382.38
2018-05-29T17:49:06.782Z,96384.01
2018-05-29T17:51:36.865Z,96392.94
2018-05-29T17:54:08.355Z,96388.63
2018-05-29T17:56:38.454Z,96396.23
2018-05-29T17:59:08.563Z,96406.48
2018-05-29T18:01:40.026Z,96410.90
2018-05-29T18:04:10.887Z,96410.48
2018-05-29T18:06:41.462Z,96408.34
2018-05-29T18:09:11.566Z,96409.86
2018-05-29T18:11:41.632Z,96410.27
2018-05-29T18:14:12.059Z,96414.27
2018-05-29T18:16:42.898Z,96411.19
2018-05-29T18:19:14.378Z,96409.86
2018-05-29T18:21:44.454Z,96411.08
2018-05-29T18:24:15.347Z,96415.30
2018-05-29T18:26:46.039Z,96414.48
2018-05-29T18:29:16.326Z,96419.05
2018-05-29T18:31:47.734Z,96425.72
2018-05-29T18:34:18.438Z,96421.41
2018-05-29T18:36:49.149Z,96420.09
2018-05-29T18:39:20.062Z,96425.01
2018-05-29T18:41:50.767Z,96426.75
2018-05-29T18:44:22.274Z,96417.94
2018-05-29T18:46:53.110Z,96426.86
2018-05-29T19:11:57.270Z,96448.10
2018-05-29T19:14:27.362Z,96441.55
2018-05-29T19:16:58.151Z,96442.77
2018-05-29T19:19:29.054Z,96453.33
2018-05-29T19:21:59.786Z,96447.06
2018-05-29T19:24:30.454Z,96444.20
2018-05-29T19:27:01.219Z,96448.20
2018-05-29T19:29:32.414Z,96445.95
2018-05-29T19:32:02.550Z,96445.62
2018-05-29T19:45:19.479Z,96460.39
2018-05-29T19:47:50.179Z,96462.64
2018-05-29T19:50:21.642Z,96457.42
2018-05-29T19:52:52.330Z,96458.23
2018-05-29T19:55:23.028Z,96456.38
2018-05-29T19:57:53.764Z,96456.19
2018-05-29T20:00:24.475Z,96447.78
2018-05-29T20:02:55.890Z,96449.93
2018-05-29T20:05:26.565Z,96453.94
2018-05-29T20:07:57.206Z,96452.41
2018-05-29T20:10:28.662Z,96457.63
2018-05-29T20:12:58.959Z,96459.66
2018-05-29T20:15:29.102Z,96459.97
2018-05-29T20:17:59.812Z,96463.25
2018-05-29T20:20:30.548Z,96460.59
2018-05-29T20:23:01.251Z,96456.18
2018-05-29T20:25:32.755Z,96449.32
2018-05-29T20:28:04.167Z,96449.22
2018-05-29T20:30:34.824Z,96444.50
2018-05-29T20:33:05.533Z,96444.06
2018-05-29T20:35:36.400Z,96441.09
2018-05-29T20:38:06.837Z,96445.09
2018-05-29T20:40:37.256Z,96440.17
2018-05-29T20:43:07.318Z,96445.20
2018-05-29T20:45:38.556Z,96443.47
2018-05-29T20:48:08.649Z,96443.47
2018-05-29T20:50:39.071Z,96448.80
2018-05-29T20:53:09.133Z,96453.42
2018-05-29T20:55:40.042Z,96455.27
2018-05-29T20:58:10.151Z,96461.01
2018-05-29T21:00:40.582Z,96461.94
2018-05-29T21:03:10.714Z,96461.60
2018-05-29T21:05:40.831Z,96460.16
2018-05-29T21:08:11.250Z,96460.38
2018-05-29T21:10:41.339Z,96466.11
2018-05-29T21:13:11.959Z,96471.14
2018-05-29T21:15:42.045Z,96467.56
2018-05-29T21:18:12.111Z,96466.22
2018-05-29T21:20:43.491Z,96459.97
2018-05-29T21:23:14.322Z,96464.59
2018-05-29T21:25:44.430Z,96470.44
2018-05-29T21:28:15.310Z,96465.59
2018-05-29T21:30:46.059Z,96460.77
2018-05-29T21:33:16.701Z,96457.59
2018-05-29T21:35:47.275Z,96460.36
2018-05-29T21:38:17.685Z,96458.63
2018-05-29T21:40:48.559Z,96451.95
2018-05-29T21:43:18.947Z,96447.66
2018-05-29T21:45:49.031Z,96448.06
2018-05-29T21:48:19.642Z,96447.88
2018-05-29T21:50:49.794Z,96455.77
2018-05-29T21:53:19.866Z,96453.28
2018-05-29T21:55:49.970Z,96460.77
2018-05-29T21:58:20.635Z,96459.94
2018-05-29T22:00:50.747Z,96456.98
2018-05-29T22:03:20.854Z,96454.01
2018-05-29T22:05:52.364Z,96453.91
2018-05-29T22:08:22.466Z,96467.23
2018-05-29T22:10:53.102Z,96463.64
2018-05-29T22:13:23.671Z,96457.39
2018-05-29T22:15:54.558Z,96454.52
2018-05-29T22:18:25.138Z,96455.04
2018-05-29T22:20:56.425Z,96448.78
2018-05-29T22:23:27.358Z,96445.78
2018-05-29T22:25:57.807Z,96443.53
2018-05-29T22:28:28.406Z,96444.45
2018-05-29T22:30:58.501Z,96442.20
2018-05-29T22:33:29.687Z,96441.37
2018-05-29T22:36:01.087Z,96442.64
2018-05-29T22:38:31.160Z,96444.97
2018-05-29T22:41:01.260Z,96439.23
2018-05-29T22:43:31.840Z,96438.00
2018-05-29T22:46:03.226Z,96434.82
2018-05-29T22:48:47.935Z,96442.00
2018-05-29T22:51:18.799Z,96445.08
2018-05-29T22:53:48.883Z,96441.19
2018-05-29T22:56:19.742Z,96444.77
2018-05-29T22:58:50.144Z,96447.95
2018-05-29T23:01:20.734Z,96454.21
2018-05-29T23:03:51.325Z,96457.87
2018-05-29T23:06:22.707Z,96466.20
2018-05-29T23:08:52.775Z,96467.53
2018-05-29T23:11:22.902Z,96476.35
2018-05-29T23:13:53.313Z,96473.28
2018-05-29T23:16:23.937Z,96476.35
2018-05-29T23:18:54.551Z,96489.06
2018-05-29T23:21:24.650Z,96492.64
2018-05-29T23:23:55.178Z,96488.34
2018-05-29T23:26:25.270Z,96489.79
2018-05-29T23:28:55.362Z,96494.50
2018-05-29T23:31:25.482Z,96493.38
2018-05-29T23:33:56.162Z,96490.27
2018-05-29T23:36:27.025Z,96495.70
2018-05-29T23:38:57.654Z,96494.89
2018-05-29T23:41:28.263Z,96493.97
2018-05-29T23:43:59.618Z,96502.06
2018-05-29T23:46:30.982Z,96498.69
2018-05-29T23:49:01.054Z,96497.36
2018-05-29T23:51:31.147Z,96503.61
2018-05-29T23:54:01.714Z,96499.20
2018-05-29T23:56:32.595Z,96499.20
2018-05-29T23:59:03.313Z,96500.54
